createdAt,value
2018-05-19T00:01:07.186Z,12.10
2018-05-19T00:03:35.542Z,12.10
2018-05-19T00:06:03.130Z,12.00
2018-05-19T00:08:31.512Z,12.10
2018-05-19T00:10:59.094Z,12.00
2018-05-19T00:13:26.687Z,12.00
2018-05-19T00:15:55.066Z,12.00
2018-05-19T00:18:23.422Z,12.00
2018-05-19T00:20:51.019Z,11.90
2018-05-19T00:23:18.625Z,12.10
2018-05-19T00:25:46.209Z,12.10
2018-05-19T00:28:13.819Z,12.10
2018-05-19T00:30:41.430Z,12.10
2018-05-19T00:33:09.778Z,12.00
2018-05-19T00:35:37.367Z,11.90
2018-05-19T00:38:04.974Z,12.00
2018-05-19T00:40:32.563Z,12.00
2018-05-19T00:43:00.154Z,12.00
2018-05-19T00:45:27.757Z,12.00
2018-05-19T00:47:55.343Z,12.00
2018-05-19T00:50:22.934Z,12.00
2018-05-19T00:52:51.319Z,12.00
2018-05-19T00:55:19.675Z,12.00
2018-05-19T00:57:47.267Z,11.90
2018-05-19T01:00:14.881Z,11.90
2018-05-19T01:02:42.470Z,11.90
2018-05-19T01:05:10.055Z,12.00
2018-05-19T01:07:37.691Z,11.90
2018-05-19T01:10:05.304Z,11.90
2018-05-19T01:12:32.895Z,11.90
2018-05-19T01:15:00.517Z,12.00
2018-05-19T01:17:28.094Z,12.00
2018-05-19T01:19:55.679Z,12.00
2018-05-19T01:22:23.286Z,12.00
2018-05-19T01:24:50.865Z,12.00
2018-05-19T01:27:18.450Z,12.00
2018-05-19T01:29:46.058Z,12.00
2018-05-19T01:32:13.648Z,12.00
2018-05-19T01:34:41.239Z,12.00
2018-05-19T01:37:09.579Z,12.00
2018-05-19T01:39:37.953Z,12.10
2018-05-19T01:42:05.531Z,12.00
2018-05-19T01:44:33.903Z,12.10
2018-05-19T01:47:01.489Z,12.00
2018-05-19T01:49:29.082Z,12.00
2018-05-19T01:51:57.462Z,12.00
2018-05-19T01:54:25.042Z,12.00
2018-05-19T01:56:53.389Z,12.00
2018-05-19T01:59:21.016Z,12.00
2018-05-19T02:01:48.607Z,12.00
2018-05-19T02:04:16.194Z,12.00
2018-05-19T02:06:43.806Z,12.00
2018-05-19T02:09:11.390Z,12.00
2018-05-19T02:11:39.739Z,12.00
2018-05-19T02:14:07.349Z,11.90
2018-05-19T02:16:34.946Z,12.00
2018-05-19T02:19:02.535Z,12.10
2018-05-19T02:21:30.143Z,12.10
2018-05-19T02:23:57.717Z,12.00
2018-05-19T02:26:25.298Z,12.00
2018-05-19T02:28:52.911Z,12.00
2018-05-19T02:31:21.255Z,12.00
2018-05-19T02:33:48.843Z,11.90
2018-05-19T02:36:16.458Z,11.90
2018-05-19T02:38:44.051Z,11.90
2018-05-19T02:41:11.634Z,11.90
2018-05-19T02:43:39.247Z,11.90
2018-05-19T02:46:06.830Z,11.90
2018-05-19T02:48:35.169Z,11.90
2018-05-19T02:51:02.786Z,11.90
2018-05-19T02:53:31.145Z,11.90
2018-05-19T02:55:58.725Z,11.80
2018-05-19T02:58:26.339Z,11.80
2018-05-19T03:00:54.695Z,11.80
2018-05-19T03:03:22.278Z,11.80
2018-05-19T03:05:49.903Z,11.90
2018-05-19T03:08:17.491Z,11.90
2018-05-19T03:10:45.094Z,11.80
2018-05-19T03:13:12.719Z,11.80
2018-05-19T03:15:40.302Z,11.90
2018-05-19T03:18:07.877Z,11.90
2018-05-19T03:20:35.500Z,11.90
2018-05-19T03:23:03.081Z,11.90
2018-05-19T03:25:31.443Z,11.90
2018-05-19T03:27:59.058Z,11.90
2018-05-19T03:30:27.412Z,11.90
2018-05-19T03:32:55.103Z,11.80
2018-05-19T03:35:22.647Z,11.90
2018-05-19T03:37:50.220Z,11.90
2018-05-19T03:40:17.807Z,11.90
2018-05-19T03:42:45.431Z,11.90
2018-05-19T03:45:13.014Z,11.90
2018-05-19T03:47:40.592Z,12.00
2018-05-19T03:50:08.208Z,12.00
2018-05-19T03:52:36.573Z,12.00
2018-05-19T03:55:04.167Z,12.00
2018-05-19T03:57:43.914Z,12.00
2018-05-19T04:00:23.282Z,12.00
2018-05-19T04:02:50.883Z,12.00
2018-05-19T04:05:19.238Z,12.00
2018-05-19T04:07:46.870Z,12.00
2018-05-19T04:10:14.482Z,12.10
2018-05-19T04:12:42.072Z,12.20
2018-05-19T04:15:10.425Z,12.30
2018-05-19T04:17:39.481Z,12.20
2018-05-19T04:22:41.870Z,12.20
2018-05-19T04:25:09.453Z,12.30
2018-05-19T04:27:37.039Z,12.30
2018-05-19T04:30:05.942Z,12.40
2018-05-19T04:32:33.547Z,12.30
2018-05-19T04:35:01.134Z,12.40
2018-05-19T04:37:28.751Z,12.50
2018-05-19T04:39:56.328Z,12.50
2018-05-19T04:42:23.918Z,12.50
2018-05-19T04:44:52.304Z,12.50
2018-05-19T04:47:20.700Z,12.50
2018-05-19T04:49:49.061Z,12.70
2018-05-19T04:52:16.818Z,12.60
2018-05-19T04:54:44.407Z,12.80
2018-05-19T04:57:11.995Z,12.80
2018-05-19T04:59:39.916Z,12.90
2018-05-19T05:02:07.566Z,12.90
2018-05-19T05:04:35.919Z,12.90
2018-05-19T05:07:03.550Z,12.80
2018-05-19T05:09:31.148Z,12.90
2018-05-19T05:11:58.733Z,12.90
2018-05-19T05:14:26.334Z,13.00
2018-05-19T05:16:53.963Z,13.00
2018-05-19T05:19:21.560Z,13.10
2018-05-19T05:21:49.183Z,13.10
2018-05-19T05:24:16.767Z,13.10
2018-05-19T05:26:44.357Z,13.20
2018-05-19T05:29:11.961Z,13.30
2018-05-19T05:31:39.719Z,13.40
2018-05-19T05:34:07.294Z,13.50
2018-05-19T05:36:34.930Z,13.40
2018-05-19T05:39:02.527Z,13.40
2018-05-19T05:41:30.110Z,13.40
2018-05-19T05:43:57.713Z,13.40
2018-05-19T05:46:25.302Z,13.40
2018-05-19T05:48:53.653Z,13.70
2018-05-19T05:51:21.263Z,13.70
2018-05-19T05:53:49.622Z,13.90
2018-05-19T05:56:17.202Z,13.90
2018-05-19T05:58:44.832Z,14.00
2018-05-19T06:01:12.413Z,13.90
2018-05-19T06:03:40.002Z,14.00
2018-05-19T06:06:07.630Z,14.00
2018-05-19T06:08:35.986Z,13.70
2018-05-19T06:11:03.667Z,13.70
2018-05-19T06:13:31.610Z,13.80
2018-05-19T06:15:59.244Z,13.80
2018-05-19T06:18:27.604Z,13.80
2018-05-19T06:20:55.223Z,13.80
2018-05-19T06:23:23.567Z,13.80
2018-05-19T06:25:51.163Z,13.70
2018-05-19T06:28:18.779Z,14.00
2018-05-19T06:30:46.366Z,14.10
2018-05-19T06:33:13.959Z,14.30
2018-05-19T06:35:41.575Z,14.30
2018-05-19T06:38:09.922Z,14.70
2018-05-19T06:40:37.519Z,14.70
2018-05-19T06:43:05.138Z,15.00
2018-05-19T06:45:32.721Z,15.10
2018-05-19T06:48:00.315Z,15.10
2018-05-19T06:50:27.941Z,15.30
2018-05-19T06:52:55.528Z,15.50
2018-05-19T06:55:23.878Z,15.30
2018-05-19T06:57:51.490Z,15.20
2018-05-19T07:00:19.088Z,15.30
2018-05-19T07:02:46.687Z,15.20
2018-05-19T07:05:14.319Z,15.50
2018-05-19T07:07:41.884Z,15.60
2018-05-19T07:10:10.206Z,16.00
2018-05-19T07:12:37.831Z,15.90
2018-05-19T07:15:05.477Z,16.00
2018-05-19T07:17:33.855Z,16.10
2018-05-19T07:20:01.440Z,16.00
2018-05-19T07:22:29.008Z,15.90
2018-05-19T07:24:56.584Z,15.80
2018-05-19T07:27:24.241Z,16.20
2018-05-19T07:29:51.747Z,16.20
2018-05-19T07:32:19.412Z,16.10
2018-05-19T07:34:47.015Z,16.00
2018-05-19T07:37:14.606Z,16.00
2018-05-19T07:39:42.199Z,15.90
2018-05-19T07:42:09.794Z,16.00
2018-05-19T07:44:37.388Z,16.00
2018-05-19T07:47:04.950Z,16.20
2018-05-19T07:49:32.571Z,16.30
2018-05-19T07:52:00.201Z,16.40
2018-05-19T07:54:27.775Z,16.20
2018-05-19T07:56:55.361Z,16.20
2018-05-19T07:59:22.909Z,16.20
2018-05-19T08:01:50.470Z,16.30
2018-05-19T08:04:18.382Z,16.50
2018-05-19T08:06:45.927Z,16.50
2018-05-19T08:09:14.238Z,16.50
2018-05-19T08:11:41.854Z,16.60
2018-05-19T08:14:09.406Z,16.70
2018-05-19T08:16:37.731Z,16.70
2018-05-19T08:19:05.323Z,16.60
2018-05-19T08:21:32.899Z,16.70
2018-05-19T08:24:00.459Z,16.90
2018-05-19T08:26:28.072Z,16.70
2018-05-19T08:28:55.651Z,16.70
2018-05-19T08:31:23.209Z,16.70
2018-05-19T08:33:50.799Z,16.60
2018-05-19T08:36:18.375Z,16.50
2018-05-19T08:38:45.946Z,16.70
2018-05-19T08:41:14.342Z,16.30
2018-05-19T08:43:41.920Z,16.30
2018-05-19T08:46:10.263Z,16.00
2018-05-19T08:48:37.866Z,16.00
2018-05-19T08:51:05.433Z,16.10
2018-05-19T08:53:32.995Z,16.30
2018-05-19T08:56:00.582Z,16.60
2018-05-19T08:58:28.168Z,16.70
2018-05-19T09:00:56.498Z,16.90
2018-05-19T09:03:24.152Z,16.90
2018-05-19T09:05:51.670Z,16.70
2018-05-19T09:08:19.229Z,16.70
2018-05-19T09:10:46.823Z,16.60
2018-05-19T09:13:14.381Z,16.50
2018-05-19T09:15:41.957Z,16.50
2018-05-19T09:18:09.551Z,16.50
2018-05-19T09:20:37.114Z,16.50
2018-05-19T09:23:04.725Z,16.60
2018-05-19T09:25:32.306Z,16.60
2018-05-19T09:27:59.874Z,16.50
2018-05-19T09:30:28.210Z,16.60
2018-05-19T09:32:55.815Z,16.60
2018-05-19T09:35:23.386Z,16.70
2018-05-19T09:37:50.954Z,16.80
2018-05-19T09:40:18.546Z,17.00
2018-05-19T09:42:46.111Z,17.00
2018-05-19T09:45:13.678Z,17.00
2018-05-19T09:47:41.363Z,16.90
2018-05-19T09:50:08.859Z,17.00
2018-05-19T09:52:36.429Z,17.20
2018-05-19T09:55:04.028Z,17.40
2018-05-19T09:57:31.603Z,17.40
2018-05-19T09:59:59.167Z,17.20
2018-05-19T10:02:26.753Z,17.00
2018-05-19T10:04:54.332Z,16.90
2018-05-19T10:07:21.911Z,16.90
2018-05-19T10:09:49.512Z,17.00
2018-05-19T10:12:17.846Z,17.10
2018-05-19T10:14:45.417Z,17.10
2018-05-19T10:17:13.052Z,17.20
2018-05-19T10:19:40.591Z,17.20
2018-05-19T10:22:08.159Z,17.20
2018-05-19T10:24:35.760Z,17.40
2018-05-19T10:27:03.318Z,17.50
2018-05-19T10:29:30.874Z,17.30
2018-05-19T10:31:58.472Z,17.40
2018-05-19T10:34:26.034Z,17.40
2018-05-19T10:36:53.603Z,17.40
2018-05-19T10:39:21.207Z,17.50
2018-05-19T10:41:49.538Z,17.30
2018-05-19T10:44:17.122Z,17.20
2018-05-19T10:46:44.702Z,17.30
2018-05-19T10:49:12.267Z,17.40
2018-05-19T10:51:39.821Z,17.50
2018-05-19T10:54:07.411Z,17.60
2018-05-19T10:56:34.983Z,17.80
2018-05-19T10:59:02.578Z,18.10
2018-05-19T11:01:30.147Z,18.20
2018-05-19T11:03:57.706Z,18.40
2018-05-19T11:06:25.266Z,18.40
2018-05-19T11:08:52.899Z,18.50
2018-05-19T11:11:20.464Z,18.50
2018-05-19T11:13:48.035Z,18.50
2018-05-19T11:16:15.646Z,18.70
2018-05-19T11:18:43.295Z,18.80
2018-05-19T11:21:10.796Z,18.90
2018-05-19T11:23:38.413Z,18.70
2018-05-19T11:26:05.974Z,18.20
2018-05-19T11:28:33.552Z,18.40
2018-05-19T11:31:01.144Z,18.30
2018-05-19T11:33:28.705Z,18.10
2018-05-19T11:35:56.304Z,18.40
2018-05-19T11:38:23.881Z,18.50
2018-05-19T11:40:52.216Z,18.40
2018-05-19T11:43:19.782Z,18.30
2018-05-19T11:45:47.375Z,18.10
2018-05-19T11:48:14.929Z,18.20
2018-05-19T11:50:42.522Z,18.00
2018-05-19T11:53:10.209Z,18.10
2018-05-19T11:55:37.766Z,18.20
2018-05-19T11:58:05.325Z,18.50
2018-05-19T12:00:32.919Z,18.70
2018-05-19T12:03:00.482Z,18.90
2018-05-19T12:05:28.043Z,19.00
2018-05-19T12:07:55.634Z,19.10
2018-05-19T12:10:23.198Z,18.90
2018-05-19T12:12:50.753Z,19.00
2018-05-19T12:15:18.338Z,19.10
2018-05-19T12:17:45.903Z,19.10
2018-05-19T12:20:13.476Z,19.10
2018-05-19T12:22:41.089Z,18.90
2018-05-19T12:25:08.671Z,18.90
2018-05-19T12:27:36.243Z,18.70
2018-05-19T12:30:03.843Z,18.30
2018-05-19T12:32:32.179Z,18.20
2018-05-19T12:34:59.742Z,18.20
2018-05-19T12:37:27.334Z,18.30
2018-05-19T12:39:54.908Z,18.30
2018-05-19T12:42:22.471Z,18.40
2018-05-19T12:44:50.062Z,18.40
2018-05-19T12:47:17.623Z,18.30
2018-05-19T12:49:45.189Z,18.30
2018-05-19T12:52:12.778Z,18.30
2018-05-19T12:54:40.345Z,18.40
2018-05-19T12:57:07.907Z,18.50
2018-05-19T12:59:35.495Z,18.50
2018-05-19T13:02:03.055Z,18.60
2018-05-19T13:04:30.662Z,18.90
2018-05-19T13:06:58.245Z,19.00
2018-05-19T13:09:26.571Z,19.10
2018-05-19T13:11:54.129Z,19.00
2018-05-19T13:14:21.744Z,18.90
2018-05-19T13:16:49.301Z,19.00
2018-05-19T13:19:16.871Z,19.10
2018-05-19T13:21:44.466Z,19.30
2018-05-19T13:24:12.053Z,19.00
2018-05-19T13:26:39.762Z,19.00
2018-05-19T13:29:07.396Z,19.10
2018-05-19T13:31:36.492Z,19.20
2018-05-19T13:34:04.067Z,19.10
2018-05-19T13:36:31.659Z,19.20
2018-05-19T13:38:59.222Z,19.40
2018-05-19T13:41:26.861Z,19.20
2018-05-19T13:43:54.398Z,18.90
2018-05-19T13:46:21.962Z,18.80
2018-05-19T13:48:49.531Z,19.00
2018-05-19T13:51:17.119Z,19.40
2018-05-19T13:53:44.679Z,19.80
2018-05-19T13:56:12.242Z,19.70
2018-05-19T13:58:39.821Z,19.40
2018-05-19T14:01:07.386Z,19.10
2018-05-19T14:03:34.969Z,19.20
2018-05-19T14:06:02.575Z,18.80
2018-05-19T14:08:30.910Z,18.60
2018-05-19T14:10:58.470Z,18.60
2018-05-19T14:13:26.057Z,18.70
2018-05-19T14:15:53.613Z,18.90
2018-05-19T14:18:21.176Z,19.00
2018-05-19T14:20:48.772Z,18.90
2018-05-19T14:23:16.334Z,18.70
2018-05-19T14:25:43.903Z,18.80
2018-05-19T14:28:11.486Z,18.70
2018-05-19T14:30:39.049Z,18.90
2018-05-19T14:33:06.679Z,19.00
2018-05-19T14:35:34.281Z,19.10
2018-05-19T14:38:01.850Z,19.20
2018-05-19T14:40:30.304Z,19.10
2018-05-19T14:42:57.825Z,19.10
2018-05-19T14:45:25.387Z,19.10
2018-05-19T14:47:52.987Z,19.20
2018-05-19T14:50:20.584Z,19.30
2018-05-19T14:52:48.141Z,19.30
2018-05-19T14:55:15.702Z,19.20
2018-05-19T14:57:43.291Z,19.20
2018-05-19T15:00:10.855Z,19.00
2018-05-19T15:02:38.409Z,19.10
2018-05-19T15:05:05.994Z,19.20
2018-05-19T15:07:33.551Z,19.10
2018-05-19T15:10:01.124Z,19.10
2018-05-19T15:12:28.711Z,19.30
2018-05-19T15:14:56.299Z,19.40
2018-05-19T15:17:23.859Z,19.30
2018-05-19T15:19:51.455Z,19.20
2018-05-19T15:22:19.015Z,19.30
2018-05-19T15:24:46.583Z,19.20
2018-05-19T15:27:14.173Z,19.10
2018-05-19T15:29:41.740Z,19.20
2018-05-19T15:32:09.321Z,19.30
2018-05-19T15:34:36.906Z,19.40
2018-05-19T15:37:04.492Z,19.40
2018-05-19T15:39:32.058Z,19.40
2018-05-19T15:41:59.651Z,19.50
2018-05-19T15:44:27.972Z,19.40
2018-05-19T15:46:55.525Z,19.40
2018-05-19T15:49:25.015Z,19.40
2018-05-19T15:51:52.583Z,19.40
2018-05-19T15:54:20.141Z,19.30
2018-05-19T15:56:47.738Z,19.30
2018-05-19T15:59:15.308Z,19.30
2018-05-19T16:01:42.874Z,19.20
2018-05-19T16:04:10.458Z,19.20
2018-05-19T16:06:38.033Z,19.00
2018-05-19T16:09:05.597Z,18.90
2018-05-19T16:11:33.190Z,19.00
2018-05-19T16:14:01.527Z,18.90
2018-05-19T16:16:29.122Z,18.90
2018-05-19T16:18:56.719Z,18.80
2018-05-19T16:21:25.058Z,18.80
2018-05-19T16:23:52.625Z,18.80
2018-05-19T16:26:20.301Z,18.80
2018-05-19T16:28:47.863Z,18.80
2018-05-19T16:31:15.420Z,18.90
2018-05-19T16:33:43.766Z,18.90
2018-05-19T16:36:11.358Z,18.90
2018-05-19T16:38:38.913Z,18.90
2018-05-19T16:41:06.528Z,18.90
2018-05-19T16:43:34.850Z,18.80
2018-05-19T16:46:02.413Z,18.80
2018-05-19T16:48:30.043Z,18.90
2018-05-19T16:50:57.602Z,18.80
2018-05-19T16:53:25.165Z,18.90
2018-05-19T16:55:52.749Z,18.80
2018-05-19T16:58:20.310Z,18.80
2018-05-19T17:00:47.890Z,18.70
2018-05-19T17:03:15.478Z,18.70
2018-05-19T17:05:43.055Z,18.70
2018-05-19T17:08:10.627Z,18.70
2018-05-19T17:10:38.215Z,18.70
2018-05-19T17:13:06.535Z,18.70
2018-05-19T17:15:34.114Z,18.60
2018-05-19T17:18:01.696Z,18.70
2018-05-19T17:20:29.262Z,18.70
2018-05-19T17:22:56.838Z,18.70
2018-05-19T17:25:24.425Z,18.60
2018-05-19T17:27:51.995Z,18.60
2018-05-19T17:30:19.579Z,18.60
2018-05-19T17:32:47.161Z,18.50
2018-05-19T17:35:14.733Z,18.50
2018-05-19T17:37:42.307Z,18.50
2018-05-19T17:40:09.936Z,18.40
2018-05-19T17:42:38.262Z,18.30
2018-05-19T17:45:05.822Z,18.30
2018-05-19T17:47:33.419Z,18.30
2018-05-19T17:50:00.988Z,18.30
2018-05-19T17:52:28.567Z,18.20
2018-05-19T17:54:56.158Z,18.10
2018-05-19T17:57:23.722Z,18.10
2018-05-19T17:59:51.319Z,18.00
2018-05-19T18:02:19.678Z,17.90
2018-05-19T18:04:47.233Z,17.80
2018-05-19T18:07:14.809Z,17.80
2018-05-19T18:09:42.399Z,17.80
2018-05-19T18:12:09.978Z,17.70
2018-05-19T18:14:37.548Z,17.60
2018-05-19T18:17:05.133Z,17.50
2018-05-19T18:19:32.697Z,17.40
2018-05-19T18:22:00.262Z,17.30
2018-05-19T18:24:27.854Z,17.20
2018-05-19T18:26:55.428Z,17.10
2018-05-19T18:29:23.008Z,17.00
2018-05-19T18:31:51.428Z,16.80
2018-05-19T18:34:18.953Z,16.70
2018-05-19T18:36:46.519Z,16.70
2018-05-19T18:39:14.143Z,16.60
2018-05-19T18:41:41.710Z,16.50
2018-05-19T18:44:09.304Z,16.40
2018-05-19T18:46:36.896Z,16.30
2018-05-19T18:49:04.467Z,16.20
2018-05-19T18:51:33.854Z,16.10
2018-05-19T18:54:01.451Z,16.00
2018-05-19T18:56:29.037Z,15.90
2018-05-19T18:59:00.567Z,15.70
2018-05-19T19:01:28.179Z,15.60
2018-05-19T19:03:55.767Z,15.50
2018-05-19T19:06:24.154Z,15.30
2018-05-19T19:08:52.505Z,15.20
2018-05-19T19:11:20.090Z,15.20
2018-05-19T19:13:47.706Z,15.10
2018-05-19T19:16:16.060Z,14.90
2018-05-19T19:18:43.649Z,14.90
2018-05-19T19:21:11.270Z,14.80
2018-05-19T19:23:38.861Z,14.70
2018-05-19T19:26:06.453Z,14.60
2018-05-19T19:28:34.066Z,14.50
2018-05-19T19:31:01.654Z,14.40
2018-05-19T19:33:29.245Z,14.30
2018-05-19T19:35:56.876Z,14.20
2018-05-19T19:38:24.458Z,14.20
2018-05-19T19:40:52.059Z,14.10
2018-05-19T19:43:19.678Z,14.00
2018-05-19T19:45:47.261Z,14.00
2018-05-19T19:48:15.610Z,13.80
2018-05-19T19:50:43.219Z,13.70
2018-05-19T19:53:11.031Z,13.70
2018-05-19T19:55:38.610Z,13.60
2018-05-19T19:58:06.230Z,13.50
2018-05-19T20:00:33.818Z,13.50
2018-05-19T20:03:01.421Z,13.50
2018-05-19T20:05:29.800Z,13.30
2018-05-19T20:07:58.161Z,13.20
2018-05-19T20:10:25.758Z,13.20
2018-05-19T20:12:54.139Z,13.10
2018-05-19T20:15:21.734Z,13.00
2018-05-19T20:17:50.086Z,13.00
2018-05-19T20:20:17.747Z,12.90
2018-05-19T20:22:45.315Z,12.90
2018-05-19T20:25:12.899Z,12.80
2018-05-19T20:27:40.523Z,12.80
2018-05-19T20:30:08.874Z,12.60
2018-05-19T20:32:36.462Z,12.50
2018-05-19T20:35:04.074Z,12.60
2018-05-19T20:37:31.665Z,12.50
2018-05-19T20:39:59.255Z,12.50
2018-05-19T20:42:26.968Z,12.40
2018-05-19T20:44:54.485Z,12.40
2018-05-19T20:47:22.077Z,12.30
2018-05-19T20:49:49.681Z,12.30
2018-05-19T20:52:17.276Z,12.20
2018-05-19T20:54:45.626Z,12.10
2018-05-19T20:57:13.233Z,12.10
2018-05-19T20:59:41.611Z,12.20
2018-05-19T21:02:09.215Z,12.20
2018-05-19T21:04:36.846Z,12.10
2018-05-19T21:07:04.441Z,12.10
2018-05-19T21:09:32.799Z,11.90
2018-05-19T21:12:00.423Z,11.90
2018-05-19T21:14:28.015Z,11.90
2018-05-19T21:16:55.608Z,11.80
2018-05-19T21:19:23.249Z,11.80
2018-05-19T21:21:50.838Z,11.70
2018-05-19T21:24:18.422Z,11.70
2018-05-19T21:26:46.039Z,11.60
2018-05-19T21:29:13.636Z,11.70
2018-05-19T21:31:41.223Z,11.60
2018-05-19T21:34:08.833Z,11.60
2018-05-19T21:36:36.423Z,11.60
2018-05-19T21:39:04.020Z,11.60
2018-05-19T21:41:32.398Z,11.50
2018-05-19T21:44:00.759Z,11.40
2018-05-19T21:46:28.355Z,11.40
2018-05-19T21:48:55.973Z,11.40
2018-05-19T21:51:23.554Z,11.40
2018-05-19T21:53:51.161Z,11.40
2018-05-19T21:56:18.775Z,11.40
2018-05-19T21:58:47.194Z,11.40
2018-05-19T22:01:14.780Z,11.40
2018-05-19T22:03:42.395Z,11.40
2018-05-19T22:06:10.749Z,11.40
2018-05-19T22:08:38.338Z,11.30
2018-05-19T22:11:05.942Z,11.40
2018-05-19T22:13:34.295Z,11.30
2018-05-19T22:16:01.878Z,11.30
2018-05-19T22:18:29.503Z,11.30
2018-05-19T22:20:57.096Z,11.30
2018-05-19T22:23:24.680Z,11.30
2018-05-19T22:25:52.308Z,11.20
2018-05-19T22:28:19.902Z,11.10
2018-05-19T22:30:47.486Z,11.10
2018-05-19T22:33:15.104Z,11.00
2018-05-19T22:35:42.686Z,11.00
2018-05-19T22:38:11.036Z,11.00
2018-05-19T22:40:38.642Z,10.90
2018-05-19T22:43:06.306Z,10.90
2018-05-19T22:45:33.825Z,10.90
2018-05-19T22:48:01.446Z,10.80
2018-05-19T22:50:29.032Z,10.80
2018-05-19T22:52:56.623Z,10.70
2018-05-19T22:55:25.010Z,10.70
2018-05-19T22:57:53.363Z,10.60
2018-05-19T23:00:22.744Z,10.60
2018-05-19T23:02:50.343Z,10.60
2018-05-19T23:05:17.947Z,10.50
2018-05-19T23:07:45.525Z,10.40
2018-05-19T23:10:13.134Z,10.40
2018-05-19T23:12:40.713Z,10.40
2018-05-19T23:15:08.311Z,10.30
2018-05-19T23:17:35.914Z,10.30
2018-05-19T23:20:03.503Z,10.30
2018-05-19T23:22:44.846Z,10.20
2018-05-19T23:25:12.431Z,10.10
2018-05-19T23:27:40.053Z,10.10
2018-05-19T23:30:07.646Z,10.10
2018-05-19T23:32:35.263Z,10.00
2018-05-19T23:35:02.846Z,10.00
2018-05-19T23:37:31.219Z,9.90
2018-05-19T23:39:58.822Z,9.90
2018-05-19T23:42:27.182Z,9.90
2018-05-19T23:44:54.785Z,9.90
2018-05-19T23:47:22.353Z,9.90
2018-05-19T23:49:49.963Z,9.70
2018-05-19T23:52:17.547Z,9.70
2018-05-19T23:54:45.148Z,9.60
2018-05-19T23:57:12.736Z,9.60
2018-05-19T23:59:40.359Z,9.50
